Time;durP1;ratioP1;P1;durP2;ratioP2;P2;SDS_P1;SDS_P2;PMS_P1;PMS_P2;Temp;Humidity;BMP_temperature;BMP_pressure;BME280_temperature;BME280_humidity;BME280_pressure;Samples;Min_cycle;Max_cycle;Signal;HPM_P1;HPM_P2
2023/06/10 00:01:59;;;;;;;16.15;8.77;;;;;;;15.90;100.00;100125.69;5007374;28;20725;-83
2023/06/10 00:04:28;;;;;;;20.35;8.90;;;;;;;15.85;100.00;100120.91;4991198;28;20503;-84
2023/06/10 00:06:55;;;;;;;17.92;9.00;;;;;;;15.75;100.00;100113.22;4991685;28;20033;-83
2023/06/10 00:09:21;;;;;;;16.08;8.65;;;;;;;15.73;100.00;100122.41;5010321;28;20043;-84
2023/06/10 00:11:47;;;;;;;17.80;9.38;;;;;;;15.69;100.00;100113.97;5022170;28;20036;-84
2023/06/10 00:14:14;;;;;;;16.17;8.10;;;;;;;15.65;100.00;100117.19;5008183;28;20025;-83
2023/06/10 00:16:40;;;;;;;17.35;8.50;;;;;;;15.61;100.00;100119.38;4990319;28;20036;-84
2023/06/10 00:19:06;;;;;;;21.33;9.40;;;;;;;15.60;100.00;100113.25;4990805;28;20054;-84
2023/06/10 00:21:44;;;;;;;17.42;8.48;;;;;;;15.61;100.00;100114.06;5020195;28;20030;-84
2023/06/10 00:24:14;;;;;;;19.52;8.45;;;;;;;15.58;100.00;100109.94;5007029;28;20037;-84
2023/06/10 00:26:40;;;;;;;19.85;9.40;;;;;;;15.57;100.00;100107.47;5006336;28;20030;-84
2023/06/10 00:29:07;;;;;;;18.70;8.55;;;;;;;15.55;100.00;100112.97;5014931;28;20041;-84
2023/06/10 00:31:37;;;;;;;24.75;9.75;;;;;;;15.62;100.00;100115.75;5023629;28;20030;-84
2023/06/10 00:34:07;;;;;;;13.32;8.43;;;;;;;15.63;100.00;100114.72;5026705;28;20124;-84
2023/06/10 00:36:33;;;;;;;21.00;8.63;;;;;;;15.59;100.00;100108.91;5038778;28;20036;-84
2023/06/10 00:38:59;;;;;;;14.55;7.93;;;;;;;15.66;100.00;100111.69;5036742;28;20052;-84
2023/06/10 00:41:28;;;;;;;15.68;8.73;;;;;;;15.70;100.00;100104.94;5000821;28;20523;-84
2023/06/10 00:43:54;;;;;;;15.75;9.25;;;;;;;15.75;100.00;100113.22;5004253;28;20041;-84
2023/06/10 00:46:21;;;;;;;18.00;8.68;;;;;;;15.80;100.00;100109.19;4996023;28;20325;-84
2023/06/10 00:48:46;;;;;;;21.05;9.43;;;;;;;15.80;100.00;100099.34;4970151;28;20197;-83
2023/06/10 00:51:12;;;;;;;16.70;8.63;;;;;;;15.80;100.00;100096.66;5028170;28;20144;-83
2023/06/10 00:53:41;;;;;;;16.85;8.43;;;;;;;15.83;100.00;100104.28;5000601;28;20041;-84
2023/06/10 00:56:07;;;;;;;19.55;9.50;;;;;;;15.82;100.00;100094.66;4985221;28;20047;-84
2023/06/10 00:58:35;;;;;;;15.48;8.02;;;;;;;15.80;100.00;100095.88;5008096;28;20028;-83
2023/06/10 01:01:01;;;;;;;24.38;9.18;;;;;;;15.79;100.00;100092.38;5015996;28;20025;-84
2023/06/10 01:03:27;;;;;;;16.15;8.50;;;;;;;15.82;100.00;100088.47;5008425;28;20555;-84
2023/06/10 01:06:19;;;;;;;16.52;8.32;;;;;;;15.91;100.00;100083.88;4993435;28;20120;-84
2023/06/10 01:08:51;;;;;;;16.65;9.20;;;;;;;15.87;100.00;100089.59;5025703;28;20083;-83
2023/06/10 01:11:21;;;;;;;16.48;8.88;;;;;;;15.93;100.00;100084.50;5030920;28;20041;-83
2023/06/10 01:13:51;;;;;;;15.88;9.23;;;;;;;15.92;100.00;100083.69;5020877;28;20036;-84
2023/06/10 01:16:19;;;;;;;17.30;8.65;;;;;;;15.87;100.00;100080.75;5028269;28;20021;-84
2023/06/10 01:18:45;;;;;;;23.55;10.35;;;;;;;15.84;100.00;100083.81;5010809;28;20641;-83
2023/06/10 01:21:21;;;;;;;15.38;8.60;;;;;;;15.81;100.00;100077.03;5014068;28;20033;-84
2023/06/10 01:23:47;;;;;;;24.73;9.95;;;;;;;15.77;100.00;100080.25;4994381;28;20424;-84
2023/06/10 01:26:15;;;;;;;13.70;9.05;;;;;;;15.78;100.00;100079.22;5015320;28;20029;-83
2023/06/10 01:28:48;;;;;;;22.83;10.55;;;;;;;15.73;100.00;100077.13;4998384;28;20037;-83
2023/06/10 01:31:33;;;;;;;17.20;8.52;;;;;;;15.75;100.00;100072.44;5018629;28;20037;-83
2023/06/10 01:34:02;;;;;;;21.30;9.85;;;;;;;15.72;100.00;100076.28;5047874;28;20113;-83
2023/06/10 01:36:28;;;;;;;16.02;9.13;;;;;;;15.71;100.00;100068.47;4997023;28;20037;-83
2023/06/10 01:38:56;;;;;;;14.98;9.02;;;;;;;15.78;100.00;100071.22;5032384;28;20514;-83
2023/06/10 01:41:23;;;;;;;20.08;9.07;;;;;;;15.78;100.00;100069.41;4997210;28;20084;-84
2023/06/10 01:43:49;;;;;;;13.77;8.93;;;;;;;15.76;100.00;100068.75;5031167;28;20555;-84
2023/06/10 01:46:19;;;;;;;21.20;9.57;;;;;;;15.72;100.00;100065.63;4967696;28;20125;-84
2023/06/10 01:48:46;;;;;;;16.75;9.60;;;;;;;15.68;100.00;100063.53;5025616;28;20049;-84
2023/06/10 01:51:11;;;;;;;17.92;8.68;;;;;;;15.67;100.00;100068.03;4995942;28;20084;-84
2023/06/10 01:53:37;;;;;;;20.38;8.75;;;;;;;15.66;100.00;100061.06;5015816;28;20040;-84
2023/06/10 01:56:03;;;;;;;17.42;9.60;;;;;;;15.67;100.00;100061.88;5031666;28;20430;-84
2023/06/10 01:58:29;;;;;;;18.08;9.43;;;;;;;15.66;100.00;100061.06;4998310;28;20053;-84
2023/06/10 02:00:55;;;;;;;20.13;9.20;;;;;;;15.68;100.00;100059.03;4981417;28;20057;-84
2023/06/10 02:03:21;;;;;;;13.77;9.23;;;;;;;15.68;100.00;100056.38;5015532;28;20115;-84
2023/06/10 02:05:47;;;;;;;18.38;9.57;;;;;;;15.72;100.00;100056.81;4977478;28;20092;-84
2023/06/10 02:08:14;;;;;;;15.73;9.38;;;;;;;15.74;100.00;100060.13;5014581;28;20029;-84
2023/06/10 02:10:40;;;;;;;17.55;8.85;;;;;;;15.74;100.00;100058.28;4997443;28;20022;-84
2023/06/10 02:13:06;;;;;;;20.38;10.05;;;;;;;15.71;100.00;100058.66;4997788;28;20029;-85
2023/06/10 02:15:33;;;;;;;18.83;9.98;;;;;;;15.69;100.00;100052.69;5013618;28;20045;-83
2023/06/10 02:18:00;;;;;;;19.58;10.75;;;;;;;15.67;100.00;100054.69;4979383;28;20064;-83
2023/06/10 02:20:26;;;;;;;19.45;9.27;;;;;;;15.67;100.00;100060.03;5010698;28;20029;-84
2023/06/10 02:22:52;;;;;;;19.23;9.32;;;;;;;15.63;100.00;100050.78;4996053;28;20034;-84
2023/06/10 02:25:18;;;;;;;17.58;10.15;;;;;;;15.53;100.00;100048.41;4997200;28;20060;-84
2023/06/10 02:27:44;;;;;;;17.05;8.52;;;;;;;15.45;100.00;100054.66;5031040;28;20033;-84
2023/06/10 02:30:10;;;;;;;14.65;8.73;;;;;;;15.33;100.00;100054.31;4997521;28;20088;-84
2023/06/10 02:32:36;;;;;;;19.15;9.80;;;;;;;15.28;100.00;100063.88;4996940;28;20041;-84
2023/06/10 02:35:03;;;;;;;16.90;9.45;;;;;;;15.23;100.00;100051.13;4997164;28;20084;-84
2023/06/10 02:37:30;;;;;;;18.20;9.15;;;;;;;15.22;100.00;100054.78;4999791;28;20041;-84
2023/06/10 02:39:56;;;;;;;17.50;9.57;;;;;;;15.18;100.00;100054.31;4997360;28;20137;-84
2023/06/10 02:42:23;;;;;;;15.52;10.45;;;;;;;15.15;100.00;100059.19;5013301;28;20034;-84
2023/06/10 02:44:50;;;;;;;19.65;9.05;;;;;;;15.13;100.00;100057.53;5013542;28;20029;-84
2023/06/10 02:47:26;;;;;;;20.48;9.57;;;;;;;15.19;100.00;100066.66;4986421;28;20037;-84
2023/06/10 02:49:53;;;;;;;19.98;9.25;;;;;;;15.23;100.00;100062.59;5046130;28;20038;-83
2023/06/10 02:52:20;;;;;;;14.00;9.10;;;;;;;15.29;100.00;100061.00;4992615;28;20036;-83
2023/06/10 02:54:46;;;;;;;31.15;9.70;;;;;;;15.37;100.00;100062.75;5017274;28;20038;-83
2023/06/10 02:57:14;;;;;;;17.38;9.30;;;;;;;15.41;100.00;100069.38;5013290;28;20049;-83
2023/06/10 02:59:40;;;;;;;18.48;8.82;;;;;;;15.45;100.00;100062.66;5016304;28;20033;-84
2023/06/10 03:02:07;;;;;;;21.33;10.23;;;;;;;15.50;100.00;100062.09;5013553;28;20057;-83
2023/06/10 03:04:40;;;;;;;16.50;9.45;;;;;;;15.54;100.00;100073.22;4983750;28;20555;-84
2023/06/10 03:07:12;;;;;;;18.45;8.90;;;;;;;15.52;100.00;100061.91;5045660;28;20037;-84
2023/06/10 03:09:39;;;;;;;13.65;9.02;;;;;;;15.49;100.00;100055.13;5007184;28;20037;-84
2023/06/10 03:12:06;;;;;;;21.73;9.75;;;;;;;15.46;100.00;100058.16;5012578;28;20079;-84
2023/06/10 03:14:38;;;;;;;20.42;9.43;;;;;;;15.35;100.00;100059.47;5012407;28;20518;-84
2023/06/10 03:17:05;;;;;;;20.98;9.43;;;;;;;15.38;100.00;100059.09;5010196;28;20033;-84
2023/06/10 03:19:33;;;;;;;14.07;8.30;;;;;;;15.39;100.00;100052.75;5016089;28;20049;-84
2023/06/10 03:22:10;;;;;;;17.67;9.20;;;;;;;15.46;100.00;100053.69;5001888;28;20136;-83
2023/06/10 03:24:40;;;;;;;15.98;9.15;;;;;;;15.43;100.00;100055.88;4993623;28;20049;-84
2023/06/10 03:27:09;;;;;;;16.63;8.75;;;;;;;15.46;100.00;100055.50;5016658;28;20034;-84
2023/06/10 03:29:37;;;;;;;18.58;8.50;;;;;;;15.50;100.00;100062.94;4994877;28;20034;-84
2023/06/10 03:32:05;;;;;;;15.23;9.20;;;;;;;15.54;100.00;100063.38;5019207;28;20427;-83
2023/06/10 03:34:32;;;;;;;18.60;9.75;;;;;;;15.54;100.00;100058.06;5028464;28;20025;-83
2023/06/10 03:36:58;;;;;;;21.33;9.43;;;;;;;15.56;100.00;100061.34;5012195;28;20037;-84
2023/06/10 03:39:25;;;;;;;18.75;10.13;;;;;;;15.61;100.00;100064.28;4994809;28;20045;-84
2023/06/10 03:41:52;;;;;;;16.20;9.43;;;;;;;15.58;100.00;100056.66;4996031;28;20041;-85
2023/06/10 03:44:18;;;;;;;17.95;9.70;;;;;;;15.56;100.00;100052.56;4976880;28;20029;-84
2023/06/10 03:46:45;;;;;;;14.55;10.02;;;;;;;15.55;100.00;100057.03;5012831;28;20084;-83
2023/06/10 03:49:12;;;;;;;15.63;8.73;;;;;;;15.55;100.00;100061.53;5010261;28;20037;-83
2023/06/10 03:51:38;;;;;;;16.27;9.27;;;;;;;15.54;100.00;100058.06;5013613;28;20040;-84
2023/06/10 03:54:04;;;;;;;21.25;10.13;;;;;;;15.52;100.00;100054.75;5010599;28;20133;-84
2023/06/10 03:56:31;;;;;;;13.90;9.73;;;;;;;15.51;100.00;100055.78;5012961;28;20109;-85
2023/06/10 03:58:57;;;;;;;18.23;9.40;;;;;;;15.47;100.00;100067.78;5045937;28;20507;-84
2023/06/10 04:01:23;;;;;;;16.88;9.70;;;;;;;15.43;100.00;100058.53;5045586;28;20030;-83
2023/06/10 04:03:51;;;;;;;20.98;10.15;;;;;;;15.40;100.00;100054.38;5013330;28;20049;-83
2023/06/10 04:06:17;;;;;;;21.35;10.68;;;;;;;15.38;100.00;100049.25;4993485;28;20469;-83
2023/06/10 04:08:43;;;;;;;17.55;9.57;;;;;;;15.40;100.00;100043.75;5022089;28;20060;-82
2023/06/10 04:11:09;;;;;;;16.83;9.75;;;;;;;15.41;100.00;100042.75;4994257;28;20481;-84
2023/06/10 04:13:36;;;;;;;15.77;9.63;;;;;;;15.40;100.00;100051.72;5029565;28;20052;-84
2023/06/10 04:16:02;;;;;;;23.38;10.23;;;;;;;15.41;100.00;100045.41;4996411;28;20069;-84
2023/06/10 04:18:28;;;;;;;20.88;9.85;;;;;;;15.41;100.00;100042.75;4996454;28;20052;-84
2023/06/10 04:20:57;;;;;;;18.20;10.32;;;;;;;15.40;100.00;100032.28;4996043;28;20041;-84
2023/06/10 04:23:23;;;;;;;17.38;11.40;;;;;;;15.41;100.00;100040.09;4996435;28;20033;-84
2023/06/10 04:25:48;;;;;;;19.63;10.85;;;;;;;15.45;100.00;100048.53;5026167;28;20033;-84
2023/06/10 04:28:14;;;;;;;12.85;9.88;;;;;;;15.47;100.00;100047.31;4996193;28;21691;-84
2023/06/10 04:30:41;;;;;;;18.38;10.48;;;;;;;15.48;100.00;100050.81;5005483;28;20034;-84
2023/06/10 04:33:09;;;;;;;19.33;10.48;;;;;;;15.49;100.00;100042.66;4980817;28;20078;-84
2023/06/10 04:35:35;;;;;;;21.35;10.82;;;;;;;15.55;100.00;100045.56;4988344;28;20049;-84
2023/06/10 04:38:03;;;;;;;19.45;10.85;;;;;;;15.58;100.00;100042.50;5011664;28;20542;-84
2023/06/10 04:40:30;;;;;;;16.15;10.05;;;;;;;15.55;100.00;100041.06;5028474;28;20391;-84
2023/06/10 04:42:56;;;;;;;18.52;10.32;;;;;;;15.53;100.00;100047.59;4995395;28;20047;-84
2023/06/10 04:45:22;;;;;;;20.65;10.15;;;;;;;15.45;100.00;100041.34;5002276;28;20045;-84
2023/06/10 04:47:47;;;;;;;18.90;11.10;;;;;;;15.45;100.00;100043.22;5015569;28;20044;-84
2023/06/10 04:50:13;;;;;;;20.70;10.68;;;;;;;15.40;100.00;100040.28;5036337;28;20037;-84
2023/06/10 04:52:41;;;;;;;21.90;11.32;;;;;;;15.38;100.00;100035.94;5001093;28;20395;-84
2023/06/10 04:55:07;;;;;;;20.42;11.15;;;;;;;15.38;100.00;100030.59;5018706;28;20037;-84
2023/06/10 04:57:33;;;;;;;26.17;11.73;;;;;;;15.37;100.00;100025.47;5017768;28;20443;-84
2023/06/10 04:59:59;;;;;;;16.73;10.32;;;;;;;15.34;100.00;100031.16;4998419;28;20056;-84
2023/06/10 05:02:25;;;;;;;19.95;11.75;;;;;;;15.39;100.00;100036.78;5014336;28;20037;-84
2023/06/10 05:04:51;;;;;;;24.02;11.18;;;;;;;15.41;100.00;100033.91;5017653;28;20025;-83
2023/06/10 05:07:16;;;;;;;27.65;11.35;;;;;;;15.46;100.00;100031.53;5017710;28;20055;-83
2023/06/10 05:09:42;;;;;;;23.08;12.07;;;;;;;15.48;100.00;100032.19;5001844;28;20037;-85
2023/06/10 05:12:08;;;;;;;21.05;11.77;;;;;;;15.54;100.00;100041.25;5017902;28;20092;-84
2023/06/10 05:14:34;;;;;;;21.83;11.48;;;;;;;15.55;100.00;100033.06;4986024;28;20033;-84
2023/06/10 05:17:00;;;;;;;24.20;12.05;;;;;;;15.55;100.00;100030.41;4985364;28;20415;-85
2023/06/10 05:19:27;;;;;;;15.52;12.02;;;;;;;15.55;100.00;100035.72;5001624;28;20046;-85
2023/06/10 05:21:52;;;;;;;21.30;11.90;;;;;;;15.54;100.00;100034.09;5033746;28;20103;-84
2023/06/10 05:24:19;;;;;;;28.25;12.75;;;;;;;15.55;100.00;100040.22;4986090;28;20047;-85
2023/06/10 05:26:45;;;;;;;21.65;12.10;;;;;;;15.55;100.00;100034.91;5035029;28;20057;-84
2023/06/10 05:29:11;;;;;;;18.75;11.82;;;;;;;15.59;100.00;100042.31;5034531;28;20079;-85
2023/06/10 05:31:37;;;;;;;19.02;11.93;;;;;;;15.58;100.00;100047.84;5014538;28;20041;-85
2023/06/10 05:34:02;;;;;;;22.27;13.10;;;;;;;15.58;100.00;100048.69;4994081;28;20029;-84
2023/06/10 05:36:29;;;;;;;19.77;12.50;;;;;;;15.60;100.00;100037.84;5017669;28;20029;-84
2023/06/10 05:38:55;;;;;;;18.00;12.90;;;;;;;15.63;100.00;100048.94;5001617;28;20068;-85
2023/06/10 05:41:21;;;;;;;26.58;12.70;;;;;;;15.64;100.00;100044.41;5035260;28;20446;-85
2023/06/10 05:43:47;;;;;;;23.60;13.10;;;;;;;15.66;100.00;100033.56;5017994;28;20368;-84
2023/06/10 05:46:13;;;;;;;15.88;12.02;;;;;;;15.69;100.00;100043.84;5017262;28;20140;-86
2023/06/10 05:48:39;;;;;;;19.13;12.18;;;;;;;15.66;100.00;100042.41;5001241;28;20069;-84
2023/06/10 05:51:05;;;;;;;19.05;13.10;;;;;;;15.66;100.00;100039.75;5034323;28;20064;-84
2023/06/10 05:53:32;;;;;;;21.13;12.98;;;;;;;15.68;100.00;100036.88;5001377;28;20096;-84
2023/06/10 05:55:58;;;;;;;20.65;12.80;;;;;;;15.70;100.00;100038.34;5025889;28;20051;-84
2023/06/10 05:58:24;;;;;;;21.30;12.52;;;;;;;15.75;100.00;100046.59;4997729;28;20038;-84
2023/06/10 06:00:50;;;;;;;22.10;11.98;;;;;;;15.73;100.00;100043.31;4997570;28;20458;-84
2023/06/10 06:03:17;;;;;;;31.05;11.65;;;;;;;15.80;100.00;100037.25;5032632;28;20037;-84
2023/06/10 06:05:43;;;;;;;20.38;12.57;;;;;;;15.80;100.00;100038.03;4997447;28;20028;-83
2023/06/10 06:08:09;;;;;;;20.67;12.23;;;;;;;15.83;100.00;100035.00;5009021;28;20048;-84
2023/06/10 06:10:35;;;;;;;21.35;12.93;;;;;;;15.82;100.00;100036.03;4996270;28;20088;-84
2023/06/10 06:13:02;;;;;;;23.67;11.75;;;;;;;15.84;100.00;100038.50;5030730;28;20705;-84
2023/06/10 06:15:28;;;;;;;26.67;13.48;;;;;;;15.82;100.00;100041.34;4996399;28;20037;-83
2023/06/10 06:17:53;;;;;;;28.58;13.23;;;;;;;15.81;100.00;100042.38;4997795;28;20051;-83
2023/06/10 06:20:20;;;;;;;19.05;12.05;;;;;;;15.82;100.00;100038.69;5028178;28;20419;-83
2023/06/10 06:22:46;;;;;;;20.95;12.45;;;;;;;15.80;100.00;100034.56;4997011;28;20441;-83
2023/06/10 06:25:12;;;;;;;20.92;11.85;;;;;;;15.80;100.00;100034.56;4997055;28;20045;-83
2023/06/10 06:27:37;;;;;;;21.95;12.63;;;;;;;15.82;100.00;100035.19;5014258;28;20033;-83
2023/06/10 06:30:04;;;;;;;25.52;12.88;;;;;;;15.81;100.00;100036.22;5013217;28;20517;-84
2023/06/10 06:32:30;;;;;;;20.77;12.25;;;;;;;15.77;100.00;100035.75;5028346;28;20037;-83
2023/06/10 06:34:56;;;;;;;23.92;12.30;;;;;;;15.74;100.00;100041.47;4993442;28;20040;-83
2023/06/10 06:37:23;;;;;;;24.65;12.43;;;;;;;15.75;100.00;100045.78;4993782;28;20391;-83
2023/06/10 06:39:53;;;;;;;19.52;12.32;;;;;;;15.75;100.00;100043.13;5012054;28;20037;-83
2023/06/10 06:42:19;;;;;;;21.98;13.07;;;;;;;15.78;100.00;100039.25;5012180;28;20045;-82
2023/06/10 06:45:06;;;;;;;21.83;13.10;;;;;;;15.77;100.00;100049.06;4994687;28;20041;-83
2023/06/10 06:47:32;;;;;;;19.45;12.43;;;;;;;15.71;100.00;100041.84;5008430;28;20092;-83
2023/06/10 06:49:57;;;;;;;23.48;13.60;;;;;;;15.66;100.00;100050.41;5030004;28;20033;-83
2023/06/10 06:52:23;;;;;;;24.27;13.10;;;;;;;15.68;100.00;100043.06;4996901;28;20078;-83
2023/06/10 06:54:49;;;;;;;19.48;12.07;;;;;;;15.65;100.00;100046.09;5012333;28;20463;-83
2023/06/10 06:57:15;;;;;;;25.55;13.48;;;;;;;15.67;100.00;100046.72;5025792;28;20037;-83
2023/06/10 06:59:41;;;;;;;24.08;13.70;;;;;;;15.71;100.00;100049.84;5011657;28;21657;-83
2023/06/10 07:02:07;;;;;;;16.63;12.63;;;;;;;15.78;100.00;100050.75;5029936;28;20079;-83
2023/06/10 07:04:32;;;;;;;20.92;12.68;;;;;;;15.87;100.00;100062.09;4992087;28;20044;-83
2023/06/10 07:06:58;;;;;;;18.23;12.73;;;;;;;15.92;100.00;100057.03;4991267;28;20549;-83
2023/06/10 07:09:24;;;;;;;22.23;13.40;;;;;;;15.95;100.00;100058.50;5026972;28;20037;-83
2023/06/10 07:11:49;;;;;;;22.05;13.32;;;;;;;15.99;100.00;100075.78;5024439;28;20060;-83
2023/06/10 07:14:15;;;;;;;24.25;14.32;;;;;;;16.06;100.00;100073.19;4993172;28;20041;-84
2023/06/10 07:16:41;;;;;;;23.65;13.23;;;;;;;16.08;100.00;100063.16;5003002;28;20115;-83
2023/06/10 07:19:07;;;;;;;19.70;13.05;;;;;;;16.10;100.00;100080.59;5011957;28;20050;-83
2023/06/10 07:21:33;;;;;;;22.08;13.70;;;;;;;16.16;100.00;100080.88;5012270;28;20496;-83
2023/06/10 07:23:59;;;;;;;24.13;13.82;;;;;;;16.17;100.00;100079.84;4997448;28;20041;-83
2023/06/10 07:26:25;;;;;;;24.65;12.75;;;;;;;16.22;100.00;100086.28;4997631;28;20041;-83
2023/06/10 07:28:51;;;;;;;22.27;14.65;;;;;;;16.28;100.00;100090.00;4997347;28;20431;-83
2023/06/10 07:31:17;;;;;;;20.65;13.25;;;;;;;16.32;100.00;100090.47;5025467;28;20034;-83
2023/06/10 07:33:43;;;;;;;18.52;13.23;;;;;;;16.34;100.00;100093.78;5031162;28;20030;-83
2023/06/10 07:36:09;;;;;;;22.65;12.77;;;;;;;16.36;100.00;100097.06;5030436;28;20030;-83
2023/06/10 07:38:36;;;;;;;23.05;13.48;;;;;;;16.38;100.00;100089.69;4986286;28;20037;-84
2023/06/10 07:41:01;;;;;;;26.02;13.63;;;;;;;16.37;100.00;100088.84;5031091;28;20069;-83
2023/06/10 07:43:27;;;;;;;21.60;13.75;;;;;;;16.36;100.00;100086.38;5013189;28;20061;-83
2023/06/10 07:45:53;;;;;;;22.80;14.55;;;;;;;16.43;100.00;100097.13;5026210;28;20072;-83
2023/06/10 07:48:19;;;;;;;21.55;13.43;;;;;;;16.46;100.00;100096.72;5013284;28;20033;-83
2023/06/10 07:50:45;;;;;;;22.42;13.55;;;;;;;16.49;100.00;100097.19;5011972;28;20037;-83
2023/06/10 07:53:11;;;;;;;20.73;13.48;;;;;;;16.51;100.00;100097.00;5012766;28;20483;-84
2023/06/10 07:55:36;;;;;;;20.98;14.60;;;;;;;16.54;100.00;100087.75;4998951;28;20033;-84
2023/06/10 07:58:02;;;;;;;25.08;14.50;;;;;;;16.56;100.00;100085.75;5020145;28;20037;-84
2023/06/10 08:00:28;;;;;;;22.23;14.07;;;;;;;16.59;100.00;100088.03;5028619;28;20033;-83
2023/06/10 08:02:55;;;;;;;22.63;14.05;;;;;;;16.59;100.00;100088.03;5028357;28;21136;-84
2023/06/10 08:05:21;;;;;;;22.75;14.30;;;;;;;16.61;100.00;100086.00;4996120;28;20044;-83
2023/06/10 08:07:47;;;;;;;29.90;14.55;;;;;;;16.62;100.00;100087.63;5000217;28;20092;-83
2023/06/10 08:10:13;;;;;;;23.48;13.40;;;;;;;16.66;100.00;100078.22;4996072;28;20033;-84
2023/06/10 08:12:39;;;;;;;30.45;13.68;;;;;;;16.71;100.00;100080.28;5012170;28;20037;-84
2023/06/10 08:15:05;;;;;;;21.33;13.68;;;;;;;16.75;100.00;100081.56;5024237;28;20026;-83
2023/06/10 08:17:31;;;;;;;20.05;12.35;;;;;;;16.80;100.00;100089.81;4997612;28;20040;-83
2023/06/10 08:19:57;;;;;;;21.70;12.43;;;;;;;16.84;100.00;100088.41;5011250;28;20042;-83
2023/06/10 08:22:23;;;;;;;29.75;13.23;;;;;;;16.86;100.00;100089.06;5011450;28;20462;-83
2023/06/10 08:24:49;;;;;;;21.92;13.15;;;;;;;16.90;100.00;100102.81;5011154;28;20048;-83
2023/06/10 08:27:15;;;;;;;16.88;12.68;;;;;;;16.92;100.00;100095.44;4978293;28;20041;-83
2023/06/10 08:29:44;;;;;;;23.35;12.48;;;;;;;16.99;100.00;100100.84;5011723;28;20038;-83
2023/06/10 08:32:10;;;;;;;21.48;12.63;;;;;;;17.00;100.00;100110.47;4990469;28;20502;-83
2023/06/10 08:34:36;;;;;;;21.77;12.63;;;;;;;16.99;100.00;100108.84;5023495;28;20041;-83
2023/06/10 08:37:05;;;;;;;25.60;12.25;;;;;;;17.02;100.00;100108.44;5027896;28;20045;-83
2023/06/10 08:39:33;;;;;;;20.35;11.88;;;;;;;17.03;100.00;100112.75;5009686;28;20033;-83
2023/06/10 08:42:06;;;;;;;24.33;12.35;;;;;;;17.08;100.00;100118.38;4993665;28;20033;-83
2023/06/10 08:44:33;;;;;;;17.35;10.02;;;;;;;17.11;100.00;100112.66;4994390;28;20041;-83
2023/06/10 08:47:00;;;;;;;22.55;10.93;;;;;;;17.16;100.00;100114.72;4993452;28;20042;-84
2023/06/10 08:49:34;;;;;;;18.67;9.98;;;;;;;17.23;100.00;100106.75;4992325;28;20041;-84
2023/06/10 08:52:00;;;;;;;18.13;9.93;;;;;;;17.26;100.00;100116.22;4990788;28;20029;-84
2023/06/10 08:54:31;;;;;;;19.33;11.15;;;;;;;17.38;100.00;100105.78;4994282;28;20041;-84
2023/06/10 08:57:00;;;;;;;16.00;9.70;;;;;;;17.41;100.00;100108.06;5017482;28;20041;-84
2023/06/10 08:59:26;;;;;;;17.75;9.98;;;;;;;17.42;100.00;100107.06;5027651;28;20112;-84
2023/06/10 09:01:53;;;;;;;19.27;9.90;;;;;;;17.50;100.00;100098.03;5011574;28;20041;-84
2023/06/10 09:04:20;;;;;;;15.70;10.32;;;;;;;17.56;100.00;100087.41;5024450;28;20508;-83
2023/06/10 09:06:48;;;;;;;15.57;10.32;;;;;;;17.58;100.00;100097.88;4988355;28;20103;-84
2023/06/10 09:09:15;;;;;;;17.58;10.55;;;;;;;17.60;100.00;100098.47;5025935;28;20033;-84
2023/06/10 09:11:43;;;;;;;16.00;9.70;;;;;;;17.63;100.00;100094.63;5028740;28;20108;-84
2023/06/10 09:14:09;;;;;;;18.80;9.93;;;;;;;17.57;100.00;100096.22;5019802;28;20108;-85
2023/06/10 09:16:35;;;;;;;26.25;9.85;;;;;;;17.55;100.00;100074.22;5027635;28;20147;-85
2023/06/10 09:19:07;;;;;;;16.00;9.30;;;;;;;17.58;100.00;100095.22;5011687;28;20095;-85
2023/06/10 09:21:34;;;;;;;14.43;9.57;;;;;;;17.55;100.00;100098.28;5032361;28;20061;-84
2023/06/10 09:24:00;;;;;;;16.63;9.95;;;;;;;17.54;100.00;100105.47;4993525;28;20038;-84
2023/06/10 09:26:32;;;;;;;17.08;9.57;;;;;;;17.55;100.00;100096.41;4974757;28;20534;-85
2023/06/10 09:29:05;;;;;;;20.50;9.85;;;;;;;17.52;100.00;100101.34;4983305;28;20036;-85
2023/06/10 09:31:34;;;;;;;17.15;9.93;;;;;;;17.43;100.00;100106.84;5007946;28;20025;-84
2023/06/10 09:34:14;;;;;;;15.98;8.23;;;;;;;17.41;100.00;100105.38;5027911;28;20375;-84
2023/06/10 09:36:40;;;;;;;16.48;9.77;;;;;;;17.34;100.00;100100.03;5032023;28;20073;-84
2023/06/10 09:39:15;;;;;;;19.13;10.43;;;;;;;17.36;100.00;100098.81;4979930;28;20068;-83
2023/06/10 09:41:42;;;;;;;;;;;;;;;17.33;100.00;100101.03;4996627;28;20048;-83
2023/06/10 09:44:14;;;;;;;20.75;10.40;;;;;;;17.33;100.00;100101.88;5013347;28;19966;-83
2023/06/10 09:46:41;;;;;;;18.48;10.73;;;;;;;17.30;100.00;100109.44;5014362;28;20025;-83
2023/06/10 09:49:07;;;;;;;21.50;11.13;;;;;;;17.29;100.00;100108.66;5033400;28;20129;-84
2023/06/10 09:51:33;;;;;;;26.98;12.32;;;;;;;17.28;100.00;100100.81;5013892;28;20120;-83
2023/06/10 09:54:01;;;;;;;18.75;11.90;;;;;;;17.28;100.00;100106.16;4997351;28;20091;-83
2023/06/10 09:56:35;;;;;;;19.92;11.93;;;;;;;17.34;100.00;100097.38;5012204;28;20044;-82
2023/06/10 09:59:01;;;;;;;21.08;11.85;;;;;;;17.38;100.00;100108.47;4996629;28;20032;-83
2023/06/10 10:01:27;;;;;;;15.57;11.57;;;;;;;17.46;100.00;100103.78;5015158;28;20041;-84
2023/06/10 10:03:52;;;;;;;18.83;10.98;;;;;;;17.58;100.00;100088.00;4984750;28;20033;-84
2023/06/10 10:06:20;;;;;;;21.63;12.02;;;;;;;17.72;100.00;100086.22;4998853;28;20392;-83
2023/06/10 10:08:48;;;;;;;19.65;12.18;;;;;;;17.86;100.00;100096.94;5032005;28;20033;-83
2023/06/10 10:11:17;;;;;;;18.83;11.70;;;;;;;17.92;100.00;100098.81;5015035;28;20021;-83
2023/06/10 10:13:48;;;;;;;14.65;11.40;;;;;;;17.97;100.00;100092.84;5037054;28;20104;-82
2023/06/10 10:16:21;;;;;;;17.67;11.20;;;;;;;17.96;100.00;100099.22;5010577;28;20121;-83
2023/06/10 10:18:53;;;;;;;14.98;11.07;;;;;;;18.01;100.00;100090.59;5018837;28;20081;-83
2023/06/10 10:21:24;;;;;;;16.30;11.32;;;;;;;18.07;100.00;100089.78;5047663;28;20053;-83
2023/06/10 10:23:56;;;;;;;20.20;10.52;;;;;;;18.12;100.00;100082.03;5011211;28;20039;-83
2023/06/10 10:26:25;;;;;;;18.63;10.27;;;;;;;18.12;100.00;100083.88;5036313;28;20506;-84
2023/06/10 10:28:57;;;;;;;18.60;11.90;;;;;;;18.21;100.00;100075.44;4999179;28;20103;-83
2023/06/10 10:31:25;;;;;;;18.02;12.00;;;;;;;18.29;100.00;100077.09;5015065;28;20025;-82
2023/06/10 10:33:58;;;;;;;20.88;10.73;;;;;;;18.43;100.00;100077.91;5015907;28;20068;-82
2023/06/10 10:36:25;;;;;;;19.83;11.60;;;;;;;18.47;100.00;100075.66;5045673;28;20033;-82
2023/06/10 10:38:51;;;;;;;16.75;10.85;;;;;;;18.49;100.00;100072.78;5003335;28;20508;-83
2023/06/10 10:41:19;;;;;;;17.77;11.48;;;;;;;18.54;100.00;100070.31;5028763;28;20041;-82
2023/06/10 10:43:46;;;;;;;17.98;11.15;;;;;;;18.55;100.00;100077.31;5036966;28;20390;-82
2023/06/10 10:46:15;;;;;;;24.67;13.07;;;;;;;18.60;100.00;100083.69;5017061;28;20052;-83
2023/06/10 10:48:42;;;;;;;18.33;11.52;;;;;;;18.62;100.00;100085.34;5014511;28;20658;-83
2023/06/10 10:51:09;;;;;;;22.52;13.00;;;;;;;18.67;100.00;100083.69;5016543;28;20108;-82
2023/06/10 10:53:38;;;;;;;19.83;11.65;;;;;;;18.74;100.00;100085.53;4997302;28;20490;-82
2023/06/10 10:56:06;;;;;;;19.42;11.15;;;;;;;18.80;100.00;100077.50;5020848;28;20036;-83
2023/06/10 10:58:32;;;;;;;19.25;11.57;;;;;;;18.82;100.00;100078.13;5016054;28;20037;-82
2023/06/10 11:00:58;;;;;;;19.17;11.27;;;;;;;18.86;100.00;100077.69;4994474;28;20031;-84
2023/06/10 11:03:30;;;;;;;18.88;11.95;;;;;;;18.92;100.00;100084.91;5013040;28;20030;-83
2023/06/10 11:05:59;;;;;;;16.55;11.85;;;;;;;18.98;100.00;100086.72;4995253;28;20034;-83